Aviation Digital Data Service (ADDS)

Output produced by METARs form (1447 UTC 22 April 2019)
found at http://www.aviationweather.gov/metar/data/
 
METAR text: UUDD 221430Z 36003MPS 320V070 CAVOK 18/M05 Q1027 R88/95D NOSIG
Conditions at: UUDD (MOSCOW/DOMODEDOV, RU) observed 1430 UTC 22 April 2019
Temperature: 18.0°C (64°F)
Dewpoint: -5.0°C (23°F) [RH = 20%]
Pressure (altimeter): 30.32 inches Hg (1027.0 mb)
Winds: from the N (360 degrees) at 7 MPH (6 knots; 3.1 m/s)
Visibility: 6 or more miles (10+ km)
Ceiling: ceiling and visibility are OK
Clouds: unknown
Weather: no significant weather observed at this time

METAR text: UUDD 221400Z 34004MPS 320V020 CAVOK 18/M05 Q1027 R88/95D NOSIG
Conditions at: UUDD (MOSCOW/DOMODEDOV, RU) observed 1400 UTC 22 April 2019
Temperature: 18.0°C (64°F)
Dewpoint: -5.0°C (23°F) [RH = 20%]
Pressure (altimeter): 30.32 inches Hg (1027.0 mb)
Winds: from the NNW (340 degrees) at 9 MPH (8 knots; 4.1 m/s)
Visibility: 6 or more miles (10+ km)
Ceiling: ceiling and visibility are OK
Clouds: unknown
Weather: no significant weather observed at this time

METAR text: UUDD 221330Z 26004MPS 220V310 CAVOK 18/M05 Q1027 R88/95D NOSIG
Conditions at: UUDD (MOSCOW/DOMODEDOV, RU) observed 1330 UTC 22 April 2019
Temperature: 18.0°C (64°F)
Dewpoint: -5.0°C (23°F) [RH = 20%]
Pressure (altimeter): 30.32 inches Hg (1027.0 mb)
Winds: from the W (260 degrees) at 9 MPH (8 knots; 4.1 m/s)
Visibility: 6 or more miles (10+ km)
Ceiling: ceiling and visibility are OK
Clouds: unknown
Weather: no significant weather observed at this time

METAR text: UUDD 221300Z 34005MPS 280V020 CAVOK 18/M05 Q1027 R88/CLRD95 NOSIG
Conditions at: UUDD (MOSCOW/DOMODEDOV, RU) observed 1300 UTC 22 April 2019
Temperature: 18.0°C (64°F)
Dewpoint: -5.0°C (23°F) [RH = 20%]
Pressure (altimeter): 30.32 inches Hg (1027.0 mb)
Winds: from the NNW (340 degrees) at 12 MPH (10 knots; 5.1 m/s)
Visibility: 6 or more miles (10+ km)
Ceiling: ceiling and visibility are OK
Clouds: unknown
Weather: no significant weather observed at this time

METAR text: UUDD 221230Z 33004MPS 300V040 CAVOK 18/M05 Q1027 R88/95D NOSIG
Conditions at: UUDD (MOSCOW/DOMODEDOV, RU) observed 1230 UTC 22 April 2019
Temperature: 18.0°C (64°F)
Dewpoint: -5.0°C (23°F) [RH = 20%]
Pressure (altimeter): 30.32 inches Hg (1027.0 mb)
Winds: from the NNW (330 degrees) at 9 MPH (8 knots; 4.1 m/s)
Visibility: 6 or more miles (10+ km)
Ceiling: ceiling and visibility are OK
Clouds: unknown
Weather: no significant weather observed at this time

METAR text: UUDD 221200Z 01004MPS 340V060 CAVOK 18/M05 Q1028 R88/95D NOSIG
Conditions at: UUDD (MOSCOW/DOMODEDOV, RU) observed 1200 UTC 22 April 2019
Temperature: 18.0°C (64°F)
Dewpoint: -5.0°C (23°F) [RH = 20%]
Pressure (altimeter): 30.35 inches Hg (1028.0 mb)
Winds: from the N (10 degrees) at 9 MPH (8 knots; 4.1 m/s)
Visibility: 6 or more miles (10+ km)
Ceiling: ceiling and visibility are OK
Clouds: unknown
Weather: no significant weather observed at this time

METAR text: UUDD 221130Z 03004MPS 320V080 CAVOK 18/M05 Q1028 R88/95D NOSIG
Conditions at: UUDD (MOSCOW/DOMODEDOV, RU) observed 1130 UTC 22 April 2019
Temperature: 18.0°C (64°F)
Dewpoint: -5.0°C (23°F) [RH = 20%]
Pressure (altimeter): 30.35 inches Hg (1028.0 mb)
Winds: from the NNE (30 degrees) at 9 MPH (8 knots; 4.1 m/s)
Visibility: 6 or more miles (10+ km)
Ceiling: ceiling and visibility are OK
Clouds: unknown
Weather: no significant weather observed at this time

METAR text: UUDD 221100Z 31003MPS 220V010 CAVOK 18/M05 Q1028 R88/CLRD95 NOSIG
Conditions at: UUDD (MOSCOW/DOMODEDOV, RU) observed 1100 UTC 22 April 2019
Temperature: 18.0°C (64°F)
Dewpoint: -5.0°C (23°F) [RH = 20%]
Pressure (altimeter): 30.35 inches Hg (1028.0 mb)
Winds: from the NW (310 degrees) at 7 MPH (6 knots; 3.1 m/s)
Visibility: 6 or more miles (10+ km)
Ceiling: ceiling and visibility are OK
Clouds: unknown
Weather: no significant weather observed at this time

METAR text: UUDD 221030Z 03003MPS 300V110 CAVOK 17/M05 Q1028 R88/95D NOSIG
Conditions at: UUDD (MOSCOW/DOMODEDOV, RU) observed 1030 UTC 22 April 2019
Temperature: 17.0°C (63°F)
Dewpoint: -5.0°C (23°F) [RH = 22%]
Pressure (altimeter): 30.35 inches Hg (1028.0 mb)
Winds: from the NNE (30 degrees) at 7 MPH (6 knots; 3.1 m/s)
Visibility: 6 or more miles (10+ km)
Ceiling: ceiling and visibility are OK
Clouds: unknown
Weather: no significant weather observed at this time

METAR text: UUDD 221000Z 01002MPS CAVOK 17/M05 Q1029 R88/CLRD95 NOSIG
Conditions at: UUDD (MOSCOW/DOMODEDOV, RU) observed 1000 UTC 22 April 2019
Temperature: 17.0°C (63°F)
Dewpoint: -5.0°C (23°F) [RH = 22%]
Pressure (altimeter): 30.38 inches Hg (1029.0 mb)
Winds: from the N (10 degrees) at 5 MPH (4 knots; 2.1 m/s)
Visibility: 6 or more miles (10+ km)
Ceiling: ceiling and visibility are OK
Clouds: unknown
Weather: no significant weather observed at this time

METAR text: UUDD 220930Z 03002G07MPS CAVOK 17/M05 Q1029 R88/95D NOSIG
Conditions at: UUDD (MOSCOW/DOMODEDOV, RU) observed 0930 UTC 22 April 2019
Temperature: 17.0°C (63°F)
Dewpoint: -5.0°C (23°F) [RH = 22%]
Pressure (altimeter): 30.38 inches Hg (1029.0 mb)
Winds: from the NNE (30 degrees) at 5 MPH (4 knots; 2.1 m/s)
gusting to 16 MPH (14 knots; 7.2 m/s)
Visibility: 6 or more miles (10+ km)
Ceiling: ceiling and visibility are OK
Clouds: unknown
Weather: no significant weather observed at this time

METAR text: UUDD 220900Z 06002MPS CAVOK 17/M05 Q1029 WS R32L R88/95D NOSIG
Conditions at: UUDD (MOSCOW/DOMODEDOV, RU) observed 0900 UTC 22 April 2019
Temperature: 17.0°C (63°F)
Dewpoint: -5.0°C (23°F) [RH = 22%]
Pressure (altimeter): 30.38 inches Hg (1029.0 mb)
Winds: from the ENE (60 degrees) at 5 MPH (4 knots; 2.1 m/s)
Visibility: 6 or more miles (10+ km)
Ceiling: ceiling and visibility are OK
Clouds: unknown
Weather: no significant weather observed at this time

METAR text: UUDD 220830Z 08003MPS 030V180 CAVOK 17/M06 Q1029 R88/95D NOSIG
Conditions at: UUDD (MOSCOW/DOMODEDOV, RU) observed 0830 UTC 22 April 2019
Temperature: 17.0°C (63°F)
Dewpoint: -6.0°C (21°F) [RH = 20%]
Pressure (altimeter): 30.38 inches Hg (1029.0 mb)
Winds: from the E (80 degrees) at 7 MPH (6 knots; 3.1 m/s)
Visibility: 6 or more miles (10+ km)
Ceiling: ceiling and visibility are OK
Clouds: unknown
Weather: no significant weather observed at this time

METAR text: UUDD 220800Z 03003MPS 350V090 CAVOK 17/M04 Q1029 R88/CLRD95 NOSIG
Conditions at: UUDD (MOSCOW/DOMODEDOV, RU) observed 0800 UTC 22 April 2019
Temperature: 17.0°C (63°F)
Dewpoint: -4.0°C (25°F) [RH = 23%]
Pressure (altimeter): 30.38 inches Hg (1029.0 mb)
Winds: from the NNE (30 degrees) at 7 MPH (6 knots; 3.1 m/s)
Visibility: 6 or more miles (10+ km)
Ceiling: ceiling and visibility are OK
Clouds: unknown
Weather: no significant weather observed at this time

METAR text: UUDD 220730Z 02003MPS 320V070 CAVOK 16/M05 Q1029 R88/CLRD95 NOSIG
Conditions at: UUDD (MOSCOW/DOMODEDOV, RU) observed 0730 UTC 22 April 2019
Temperature: 16.0°C (61°F)
Dewpoint: -5.0°C (23°F) [RH = 23%]
Pressure (altimeter): 30.38 inches Hg (1029.0 mb)
Winds: from the NNE (20 degrees) at 7 MPH (6 knots; 3.1 m/s)
Visibility: 6 or more miles (10+ km)
Ceiling: ceiling and visibility are OK
Clouds: unknown
Weather: no significant weather observed at this time

METAR text: UUDD 220700Z 35002MPS 290V030 CAVOK 15/M05 Q1029 R88/95D NOSIG
Conditions at: UUDD (MOSCOW/DOMODEDOV, RU) observed 0700 UTC 22 April 2019
Temperature: 15.0°C (59°F)
Dewpoint: -5.0°C (23°F) [RH = 25%]
Pressure (altimeter): 30.38 inches Hg (1029.0 mb)
Winds: from the N (350 degrees) at 5 MPH (4 knots; 2.1 m/s)
Visibility: 6 or more miles (10+ km)
Ceiling: ceiling and visibility are OK
Clouds: unknown
Weather: no significant weather observed at this time

METAR text: UUDD 220630Z 35002MPS CAVOK 14/M04 Q1029 R88/95D NOSIG
Conditions at: UUDD (MOSCOW/DOMODEDOV, RU) observed 0630 UTC 22 April 2019
Temperature: 14.0°C (57°F)
Dewpoint: -4.0°C (25°F) [RH = 28%]
Pressure (altimeter): 30.38 inches Hg (1029.0 mb)
Winds: from the N (350 degrees) at 5 MPH (4 knots; 2.1 m/s)
Visibility: 6 or more miles (10+ km)
Ceiling: ceiling and visibility are OK
Clouds: unknown
Weather: no significant weather observed at this time

METAR text: UUDD 220600Z VRB01MPS CAVOK 13/M03 Q1029 R88/CLRD95 NOSIG
Conditions at: UUDD (MOSCOW/DOMODEDOV, RU) observed 0600 UTC 22 April 2019
Temperature: 13.0°C (55°F)
Dewpoint: -3.0°C (27°F) [RH = 33%]
Pressure (altimeter): 30.38 inches Hg (1029.0 mb)
Winds: variable direction winds at 2 MPH (2 knots; 1.0 m/s)
Visibility: 6 or more miles (10+ km)
Ceiling: ceiling and visibility are OK
Clouds: unknown
Weather: no significant weather observed at this time

METAR text: UUDD 220530Z 04002MPS 360V090 CAVOK 11/M02 Q1029 R88/CLRD95 NOSIG
Conditions at: UUDD (MOSCOW/DOMODEDOV, RU) observed 0530 UTC 22 April 2019
Temperature: 11.0°C (52°F)
Dewpoint: -2.0°C (28°F) [RH = 40%]
Pressure (altimeter): 30.38 inches Hg (1029.0 mb)
Winds: from the NE (40 degrees) at 5 MPH (4 knots; 2.1 m/s)
Visibility: 6 or more miles (10+ km)
Ceiling: ceiling and visibility are OK
Clouds: unknown
Weather: no significant weather observed at this time

METAR text: UUDD 220500Z 03002MPS 010V080 CAVOK 09/M02 Q1029 R88/95D NOSIG
Conditions at: UUDD (MOSCOW/DOMODEDOV, RU) observed 0500 UTC 22 April 2019
Temperature: 9.0°C (48°F)
Dewpoint: -2.0°C (28°F) [RH = 46%]
Pressure (altimeter): 30.38 inches Hg (1029.0 mb)
Winds: from the NNE (30 degrees) at 5 MPH (4 knots; 2.1 m/s)
Visibility: 6 or more miles (10+ km)
Ceiling: ceiling and visibility are OK
Clouds: unknown
Weather: no significant weather observed at this time

METAR text: UUDD 220430Z 04002MPS 010V070 CAVOK 08/M01 Q1029 R88/CLRD95 NOSIG
Conditions at: UUDD (MOSCOW/DOMODEDOV, RU) observed 0430 UTC 22 April 2019
Temperature: 8.0°C (46°F)
Dewpoint: -1.0°C (30°F) [RH = 53%]
Pressure (altimeter): 30.38 inches Hg (1029.0 mb)
Winds: from the NE (40 degrees) at 5 MPH (4 knots; 2.1 m/s)
Visibility: 6 or more miles (10+ km)
Ceiling: ceiling and visibility are OK
Clouds: unknown
Weather: no significant weather observed at this time

METAR text: UUDD 220400Z 04002MPS CAVOK 04/M01 Q1028 R88/CLRD95 NOSIG
Conditions at: UUDD (MOSCOW/DOMODEDOV, RU) observed 0400 UTC 22 April 2019
Temperature: 4.0°C (39°F)
Dewpoint: -1.0°C (30°F) [RH = 70%]
Pressure (altimeter): 30.35 inches Hg (1028.0 mb)
Winds: from the NE (40 degrees) at 5 MPH (4 knots; 2.1 m/s)
Visibility: 6 or more miles (10+ km)
Ceiling: ceiling and visibility are OK
Clouds: unknown
Weather: no significant weather observed at this time

METAR text: UUDD 220330Z VRB01MPS CAVOK 04/M01 Q1028 R32L/CLRD95 NOSIG
Conditions at: UUDD (MOSCOW/DOMODEDOV, RU) observed 0330 UTC 22 April 2019
Temperature: 4.0°C (39°F)
Dewpoint: -1.0°C (30°F) [RH = 70%]
Pressure (altimeter): 30.35 inches Hg (1028.0 mb)
Winds: variable direction winds at 2 MPH (2 knots; 1.0 m/s)
Visibility: 6 or more miles (10+ km)
Ceiling: ceiling and visibility are OK
Clouds: unknown
Weather: no significant weather observed at this time

METAR text: UUDD 220300Z VRB01MPS CAVOK 02/M02 Q1028 R32L/CLRD95 NOSIG
Conditions at: UUDD (MOSCOW/DOMODEDOV, RU) observed 0300 UTC 22 April 2019
Temperature: 2.0°C (36°F)
Dewpoint: -2.0°C (28°F) [RH = 75%]
Pressure (altimeter): 30.35 inches Hg (1028.0 mb)
Winds: variable direction winds at 2 MPH (2 knots; 1.0 m/s)
Visibility: 6 or more miles (10+ km)
Ceiling: ceiling and visibility are OK
Clouds: unknown
Weather: no significant weather observed at this time

METAR text: UUDD 220230Z 00000MPS CAVOK 02/M03 Q1028 R32L/CLRD95 NOSIG
Conditions at: UUDD (MOSCOW/DOMODEDOV, RU) observed 0230 UTC 22 April 2019
Temperature: 2.0°C (36°F)
Dewpoint: -3.0°C (27°F) [RH = 69%]
Pressure (altimeter): 30.35 inches Hg (1028.0 mb)
Winds: calm
Visibility: 6 or more miles (10+ km)
Ceiling: ceiling and visibility are OK
Clouds: unknown
Weather: no significant weather observed at this time

METAR text: UUDD 220200Z VRB01MPS CAVOK 02/M02 Q1028 R32L/CLRD95 NOSIG
Conditions at: UUDD (MOSCOW/DOMODEDOV, RU) observed 0200 UTC 22 April 2019
Temperature: 2.0°C (36°F)
Dewpoint: -2.0°C (28°F) [RH = 75%]
Pressure (altimeter): 30.35 inches Hg (1028.0 mb)
Winds: variable direction winds at 2 MPH (2 knots; 1.0 m/s)
Visibility: 6 or more miles (10+ km)
Ceiling: ceiling and visibility are OK
Clouds: unknown
Weather: no significant weather observed at this time

METAR text: UUDD 220130Z 00000MPS CAVOK 01/M02 Q1028 R32L/CLRD95 NOSIG
Conditions at: UUDD (MOSCOW/DOMODEDOV, RU) observed 0130 UTC 22 April 2019
Temperature: 1.0°C (34°F)
Dewpoint: -2.0°C (28°F) [RH = 80%]
Pressure (altimeter): 30.35 inches Hg (1028.0 mb)
Winds: calm
Visibility: 6 or more miles (10+ km)
Ceiling: ceiling and visibility are OK
Clouds: unknown
Weather: no significant weather observed at this time

METAR text: UUDD 220100Z 00000MPS CAVOK 02/M02 Q1028 R32L/CLRD95 NOSIG
Conditions at: UUDD (MOSCOW/DOMODEDOV, RU) observed 0100 UTC 22 April 2019
Temperature: 2.0°C (36°F)
Dewpoint: -2.0°C (28°F) [RH = 75%]
Pressure (altimeter): 30.35 inches Hg (1028.0 mb)
Winds: calm
Visibility: 6 or more miles (10+ km)
Ceiling: ceiling and visibility are OK
Clouds: unknown
Weather: no significant weather observed at this time

METAR text: UUDD 220030Z VRB01MPS CAVOK 03/M03 Q1028 R32L/CLRD95 NOSIG
Conditions at: UUDD (MOSCOW/DOMODEDOV, RU) observed 0030 UTC 22 April 2019
Temperature: 3.0°C (37°F)
Dewpoint: -3.0°C (27°F) [RH = 65%]
Pressure (altimeter): 30.35 inches Hg (1028.0 mb)
Winds: variable direction winds at 2 MPH (2 knots; 1.0 m/s)
Visibility: 6 or more miles (10+ km)
Ceiling: ceiling and visibility are OK
Clouds: unknown
Weather: no significant weather observed at this time

METAR text: UUDD 220000Z 00000MPS CAVOK 03/M02 Q1028 R32L/CLRD95 NOSIG
Conditions at: UUDD (MOSCOW/DOMODEDOV, RU) observed 0000 UTC 22 April 2019
Temperature: 3.0°C (37°F)
Dewpoint: -2.0°C (28°F) [RH = 70%]
Pressure (altimeter): 30.35 inches Hg (1028.0 mb)
Winds: calm
Visibility: 6 or more miles (10+ km)
Ceiling: ceiling and visibility are OK
Clouds: unknown
Weather: no significant weather observed at this time

METAR text: UUDD 212330Z VRB01MPS CAVOK 04/M03 Q1028 R32L/CLRD95 NOSIG
Conditions at: UUDD (MOSCOW/DOMODEDOV, RU) observed 2330 UTC 21 April 2019
Temperature: 4.0°C (39°F)
Dewpoint: -3.0°C (27°F) [RH = 60%]
Pressure (altimeter): 30.35 inches Hg (1028.0 mb)
Winds: variable direction winds at 2 MPH (2 knots; 1.0 m/s)
Visibility: 6 or more miles (10+ km)
Ceiling: ceiling and visibility are OK
Clouds: unknown
Weather: no significant weather observed at this time

METAR text: UUDD 212300Z 00000MPS CAVOK 04/M03 Q1027 R32L/CLRD95 NOSIG
Conditions at: UUDD (MOSCOW/DOMODEDOV, RU) observed 2300 UTC 21 April 2019
Temperature: 4.0°C (39°F)
Dewpoint: -3.0°C (27°F) [RH = 60%]
Pressure (altimeter): 30.32 inches Hg (1027.0 mb)
Winds: calm
Visibility: 6 or more miles (10+ km)
Ceiling: ceiling and visibility are OK
Clouds: unknown
Weather: no significant weather observed at this time

METAR text: UUDD 212230Z 00000MPS CAVOK 05/M02 Q1027 R32L/CLRD95 NOSIG
Conditions at: UUDD (MOSCOW/DOMODEDOV, RU) observed 2230 UTC 21 April 2019
Temperature: 5.0°C (41°F)
Dewpoint: -2.0°C (28°F) [RH = 60%]
Pressure (altimeter): 30.32 inches Hg (1027.0 mb)
Winds: calm
Visibility: 6 or more miles (10+ km)
Ceiling: ceiling and visibility are OK
Clouds: unknown
Weather: no significant weather observed at this time

METAR text: UUDD 212200Z 00000MPS CAVOK 05/M02 Q1027 R32L/CLRD95 NOSIG
Conditions at: UUDD (MOSCOW/DOMODEDOV, RU) observed 2200 UTC 21 April 2019
Temperature: 5.0°C (41°F)
Dewpoint: -2.0°C (28°F) [RH = 60%]
Pressure (altimeter): 30.32 inches Hg (1027.0 mb)
Winds: calm
Visibility: 6 or more miles (10+ km)
Ceiling: ceiling and visibility are OK
Clouds: unknown
Weather: no significant weather observed at this time

METAR text: UUDD 212130Z VRB01MPS CAVOK 09/M04 Q1027 R32L/CLRD95 NOSIG
Conditions at: UUDD (MOSCOW/DOMODEDOV, RU) observed 2130 UTC 21 April 2019
Temperature: 9.0°C (48°F)
Dewpoint: -4.0°C (25°F) [RH = 40%]
Pressure (altimeter): 30.32 inches Hg (1027.0 mb)
Winds: variable direction winds at 2 MPH (2 knots; 1.0 m/s)
Visibility: 6 or more miles (10+ km)
Ceiling: ceiling and visibility are OK
Clouds: unknown
Weather: no significant weather observed at this time

METAR text: UUDD 212100Z VRB01MPS CAVOK 11/M04 Q1027 R88/CLRD95 NOSIG
Conditions at: UUDD (MOSCOW/DOMODEDOV, RU) observed 2100 UTC 21 April 2019
Temperature: 11.0°C (52°F)
Dewpoint: -4.0°C (25°F) [RH = 35%]
Pressure (altimeter): 30.32 inches Hg (1027.0 mb)
Winds: variable direction winds at 2 MPH (2 knots; 1.0 m/s)
Visibility: 6 or more miles (10+ km)
Ceiling: ceiling and visibility are OK
Clouds: unknown
Weather: no significant weather observed at this time

METAR text: UUDD 212030Z 00000MPS CAVOK 06/M03 Q1027 R88/CLRD95 NOSIG
Conditions at: UUDD (MOSCOW/DOMODEDOV, RU) observed 2030 UTC 21 April 2019
Temperature: 6.0°C (43°F)
Dewpoint: -3.0°C (27°F) [RH = 52%]
Pressure (altimeter): 30.32 inches Hg (1027.0 mb)
Winds: calm
Visibility: 6 or more miles (10+ km)
Ceiling: ceiling and visibility are OK
Clouds: unknown
Weather: no significant weather observed at this time

METAR text: UUDD 212000Z 00000MPS CAVOK 07/M03 Q1027 R88/95D NOSIG
Conditions at: UUDD (MOSCOW/DOMODEDOV, RU) observed 2000 UTC 21 April 2019
Temperature: 7.0°C (45°F)
Dewpoint: -3.0°C (27°F) [RH = 49%]
Pressure (altimeter): 30.32 inches Hg (1027.0 mb)
Winds: calm
Visibility: 6 or more miles (10+ km)
Ceiling: ceiling and visibility are OK
Clouds: unknown
Weather: no significant weather observed at this time

METAR text: UUDD 211930Z VRB01MPS CAVOK 08/M03 Q1027 R88/CLRD95 NOSIG
Conditions at: UUDD (MOSCOW/DOMODEDOV, RU) observed 1930 UTC 21 April 2019
Temperature: 8.0°C (46°F)
Dewpoint: -3.0°C (27°F) [RH = 46%]
Pressure (altimeter): 30.32 inches Hg (1027.0 mb)
Winds: variable direction winds at 2 MPH (2 knots; 1.0 m/s)
Visibility: 6 or more miles (10+ km)
Ceiling: ceiling and visibility are OK
Clouds: unknown
Weather: no significant weather observed at this time

METAR text: UUDD 211900Z 31002MPS CAVOK 08/M04 Q1027 R88/95D NOSIG
Conditions at: UUDD (MOSCOW/DOMODEDOV, RU) observed 1900 UTC 21 April 2019
Temperature: 8.0°C (46°F)
Dewpoint: -4.0°C (25°F) [RH = 42%]
Pressure (altimeter): 30.32 inches Hg (1027.0 mb)
Winds: from the NW (310 degrees) at 5 MPH (4 knots; 2.1 m/s)
Visibility: 6 or more miles (10+ km)
Ceiling: ceiling and visibility are OK
Clouds: unknown
Weather: no significant weather observed at this time

METAR text: UUDD 211830Z VRB01MPS CAVOK 07/M03 Q1027 R88/95D NOSIG
Conditions at: UUDD (MOSCOW/DOMODEDOV, RU) observed 1830 UTC 21 April 2019
Temperature: 7.0°C (45°F)
Dewpoint: -3.0°C (27°F) [RH = 49%]
Pressure (altimeter): 30.32 inches Hg (1027.0 mb)
Winds: variable direction winds at 2 MPH (2 knots; 1.0 m/s)
Visibility: 6 or more miles (10+ km)
Ceiling: ceiling and visibility are OK
Clouds: unknown
Weather: no significant weather observed at this time

METAR text: UUDD 211800Z 27002MPS 220V350 CAVOK 10/M05 Q1027 R88/95D NOSIG
Conditions at: UUDD (MOSCOW/DOMODEDOV, RU) observed 1800 UTC 21 April 2019
Temperature: 10.0°C (50°F)
Dewpoint: -5.0°C (23°F) [RH = 34%]
Pressure (altimeter): 30.32 inches Hg (1027.0 mb)
Winds: from the W (270 degrees) at 5 MPH (4 knots; 2.1 m/s)
Visibility: 6 or more miles (10+ km)
Ceiling: ceiling and visibility are OK
Clouds: unknown
Weather: no significant weather observed at this time

METAR text: UUDD 211730Z VRB01MPS CAVOK 10/M03 Q1026 R88/95D NOSIG
Conditions at: UUDD (MOSCOW/DOMODEDOV, RU) observed 1730 UTC 21 April 2019
Temperature: 10.0°C (50°F)
Dewpoint: -3.0°C (27°F) [RH = 40%]
Pressure (altimeter): 30.30 inches Hg (1026.0 mb)
Winds: variable direction winds at 2 MPH (2 knots; 1.0 m/s)
Visibility: 6 or more miles (10+ km)
Ceiling: ceiling and visibility are OK
Clouds: unknown
Weather: no significant weather observed at this time

METAR text: UUDD 211700Z VRB01MPS CAVOK 12/M04 Q1026 R88/CLRD95 NOSIG
Conditions at: UUDD (MOSCOW/DOMODEDOV, RU) observed 1700 UTC 21 April 2019
Temperature: 12.0°C (54°F)
Dewpoint: -4.0°C (25°F) [RH = 32%]
Pressure (altimeter): 30.30 inches Hg (1026.0 mb)
Winds: variable direction winds at 2 MPH (2 knots; 1.0 m/s)
Visibility: 6 or more miles (10+ km)
Ceiling: ceiling and visibility are OK
Clouds: unknown
Weather: no significant weather observed at this time

METAR text: UUDD 211630Z 22002MPS 180V240 CAVOK 13/M04 Q1026 R88/95D NOSIG
Conditions at: UUDD (MOSCOW/DOMODEDOV, RU) observed 1630 UTC 21 April 2019
Temperature: 13.0°C (55°F)
Dewpoint: -4.0°C (25°F) [RH = 30%]
Pressure (altimeter): 30.30 inches Hg (1026.0 mb)
Winds: from the SW (220 degrees) at 5 MPH (4 knots; 2.1 m/s)
Visibility: 6 or more miles (10+ km)
Ceiling: ceiling and visibility are OK
Clouds: unknown
Weather: no significant weather observed at this time

METAR text: UUDD 211600Z VRB01MPS CAVOK 15/M06 Q1026 R88/CLRD95 NOSIG
Conditions at: UUDD (MOSCOW/DOMODEDOV, RU) observed 1600 UTC 21 April 2019
Temperature: 15.0°C (59°F)
Dewpoint: -6.0°C (21°F) [RH = 23%]
Pressure (altimeter): 30.30 inches Hg (1026.0 mb)
Winds: variable direction winds at 2 MPH (2 knots; 1.0 m/s)
Visibility: 6 or more miles (10+ km)
Ceiling: ceiling and visibility are OK
Clouds: unknown
Weather: no significant weather observed at this time

METAR text: UUDD 211530Z VRB01MPS CAVOK 16/M05 Q1026 R88/95D NOSIG
Conditions at: UUDD (MOSCOW/DOMODEDOV, RU) observed 1530 UTC 21 April 2019
Temperature: 16.0°C (61°F)
Dewpoint: -5.0°C (23°F) [RH = 23%]
Pressure (altimeter): 30.30 inches Hg (1026.0 mb)
Winds: variable direction winds at 2 MPH (2 knots; 1.0 m/s)
Visibility: 6 or more miles (10+ km)
Ceiling: ceiling and visibility are OK
Clouds: unknown
Weather: no significant weather observed at this time

METAR text: UUDD 211500Z VRB01MPS CAVOK 16/M07 Q1026 R88/95D NOSIG
Conditions at: UUDD (MOSCOW/DOMODEDOV, RU) observed 1500 UTC 21 April 2019
Temperature: 16.0°C (61°F)
Dewpoint: -7.0°C (19°F) [RH = 20%]
Pressure (altimeter): 30.30 inches Hg (1026.0 mb)
Winds: variable direction winds at 2 MPH (2 knots; 1.0 m/s)
Visibility: 6 or more miles (10+ km)
Ceiling: ceiling and visibility are OK
Clouds: unknown
Weather: no significant weather observed at this time

METAR text: UUDD 211430Z 07002MPS 360V130 CAVOK 17/M06 Q1026 R88/95D NOSIG
Conditions at: UUDD (MOSCOW/DOMODEDOV, RU) observed 1430 UTC 21 April 2019
Temperature: 17.0°C (63°F)
Dewpoint: -6.0°C (21°F) [RH = 20%]
Pressure (altimeter): 30.30 inches Hg (1026.0 mb)
Winds: from the ENE (70 degrees) at 5 MPH (4 knots; 2.1 m/s)
Visibility: 6 or more miles (10+ km)
Ceiling: ceiling and visibility are OK
Clouds: unknown
Weather: no significant weather observed at this time

METAR text: UUDD 211400Z 11003MPS 060V150 CAVOK 17/M08 Q1026 R88/CLRD95 NOSIG
Conditions at: UUDD (MOSCOW/DOMODEDOV, RU) observed 1400 UTC 21 April 2019
Temperature: 17.0°C (63°F)
Dewpoint: -8.0°C (18°F) [RH = 17%]
Pressure (altimeter): 30.30 inches Hg (1026.0 mb)
Winds: from the ESE (110 degrees) at 7 MPH (6 knots; 3.1 m/s)
Visibility: 6 or more miles (10+ km)
Ceiling: ceiling and visibility are OK
Clouds: unknown
Weather: no significant weather observed at this time

METAR text: UUDD 211330Z 08003MPS 010V170 CAVOK 17/M08 Q1026 R88/CLRD95 NOSIG
Conditions at: UUDD (MOSCOW/DOMODEDOV, RU) observed 1330 UTC 21 April 2019
Temperature: 17.0°C (63°F)
Dewpoint: -8.0°C (18°F) [RH = 17%]
Pressure (altimeter): 30.30 inches Hg (1026.0 mb)
Winds: from the E (80 degrees) at 7 MPH (6 knots; 3.1 m/s)
Visibility: 6 or more miles (10+ km)
Ceiling: ceiling and visibility are OK
Clouds: unknown
Weather: no significant weather observed at this time

METAR text: UUDD 211300Z 14002MPS CAVOK 17/M07 Q1026 R88/95D NOSIG
Conditions at: UUDD (MOSCOW/DOMODEDOV, RU) observed 1300 UTC 21 April 2019
Temperature: 17.0°C (63°F)
Dewpoint: -7.0°C (19°F) [RH = 19%]
Pressure (altimeter): 30.30 inches Hg (1026.0 mb)
Winds: from the SE (140 degrees) at 5 MPH (4 knots; 2.1 m/s)
Visibility: 6 or more miles (10+ km)
Ceiling: ceiling and visibility are OK
Clouds: unknown
Weather: no significant weather observed at this time

METAR text: UUDD 211230Z 09003MPS 050V140 CAVOK 17/M07 Q1026 R88/95D NOSIG
Conditions at: UUDD (MOSCOW/DOMODEDOV, RU) observed 1230 UTC 21 April 2019
Temperature: 17.0°C (63°F)
Dewpoint: -7.0°C (19°F) [RH = 19%]
Pressure (altimeter): 30.30 inches Hg (1026.0 mb)
Winds: from the E (90 degrees) at 7 MPH (6 knots; 3.1 m/s)
Visibility: 6 or more miles (10+ km)
Ceiling: ceiling and visibility are OK
Clouds: unknown
Weather: no significant weather observed at this time

METAR text: UUDD 211200Z 18003MPS 120V230 CAVOK 16/M07 Q1026 R88/CLRD95 NOSIG
Conditions at: UUDD (MOSCOW/DOMODEDOV, RU) observed 1200 UTC 21 April 2019
Temperature: 16.0°C (61°F)
Dewpoint: -7.0°C (19°F) [RH = 20%]
Pressure (altimeter): 30.30 inches Hg (1026.0 mb)
Winds: from the S (180 degrees) at 7 MPH (6 knots; 3.1 m/s)
Visibility: 6 or more miles (10+ km)
Ceiling: ceiling and visibility are OK
Clouds: unknown
Weather: no significant weather observed at this time

METAR text: UUDD 211130Z 12003MPS 070V190 CAVOK 17/M05 Q1026 R88/CLRD95 NOSIG
Conditions at: UUDD (MOSCOW/DOMODEDOV, RU) observed 1130 UTC 21 April 2019
Temperature: 17.0°C (63°F)
Dewpoint: -5.0°C (23°F) [RH = 22%]
Pressure (altimeter): 30.30 inches Hg (1026.0 mb)
Winds: from the ESE (120 degrees) at 7 MPH (6 knots; 3.1 m/s)
Visibility: 6 or more miles (10+ km)
Ceiling: ceiling and visibility are OK
Clouds: unknown
Weather: no significant weather observed at this time

METAR text: UUDD 211100Z 04004MPS 340V090 CAVOK 16/M07 Q1027 R88/CLRD95 NOSIG
Conditions at: UUDD (MOSCOW/DOMODEDOV, RU) observed 1100 UTC 21 April 2019
Temperature: 16.0°C (61°F)
Dewpoint: -7.0°C (19°F) [RH = 20%]
Pressure (altimeter): 30.32 inches Hg (1027.0 mb)
Winds: from the NE (40 degrees) at 9 MPH (8 knots; 4.1 m/s)
Visibility: 6 or more miles (10+ km)
Ceiling: ceiling and visibility are OK
Clouds: unknown
Weather: no significant weather observed at this time

METAR text: UUDD 211030Z 03002MPS CAVOK 17/M06 Q1027 R88/CLRD95 NOSIG
Conditions at: UUDD (MOSCOW/DOMODEDOV, RU) observed 1030 UTC 21 April 2019
Temperature: 17.0°C (63°F)
Dewpoint: -6.0°C (21°F) [RH = 20%]
Pressure (altimeter): 30.32 inches Hg (1027.0 mb)
Winds: from the NNE (30 degrees) at 5 MPH (4 knots; 2.1 m/s)
Visibility: 6 or more miles (10+ km)
Ceiling: ceiling and visibility are OK
Clouds: unknown
Weather: no significant weather observed at this time

METAR text: UUDD 211000Z 16002MPS CAVOK 16/M06 Q1027 R88/CLRD95 NOSIG
Conditions at: UUDD (MOSCOW/DOMODEDOV, RU) observed 1000 UTC 21 April 2019
Temperature: 16.0°C (61°F)
Dewpoint: -6.0°C (21°F) [RH = 21%]
Pressure (altimeter): 30.32 inches Hg (1027.0 mb)
Winds: from the SSE (160 degrees) at 5 MPH (4 knots; 2.1 m/s)
Visibility: 6 or more miles (10+ km)
Ceiling: ceiling and visibility are OK
Clouds: unknown
Weather: no significant weather observed at this time

METAR text: UUDD 210930Z 16003MPS 100V250 CAVOK 15/M06 Q1027 R88/95D NOSIG
Conditions at: UUDD (MOSCOW/DOMODEDOV, RU) observed 0930 UTC 21 April 2019
Temperature: 15.0°C (59°F)
Dewpoint: -6.0°C (21°F) [RH = 23%]
Pressure (altimeter): 30.32 inches Hg (1027.0 mb)
Winds: from the SSE (160 degrees) at 7 MPH (6 knots; 3.1 m/s)
Visibility: 6 or more miles (10+ km)
Ceiling: ceiling and visibility are OK
Clouds: unknown
Weather: no significant weather observed at this time

METAR text: UUDD 210900Z 16004MPS 100V200 CAVOK 15/M05 Q1027 R88/95D NOSIG
Conditions at: UUDD (MOSCOW/DOMODEDOV, RU) observed 0900 UTC 21 April 2019
Temperature: 15.0°C (59°F)
Dewpoint: -5.0°C (23°F) [RH = 25%]
Pressure (altimeter): 30.32 inches Hg (1027.0 mb)
Winds: from the SSE (160 degrees) at 9 MPH (8 knots; 4.1 m/s)
Visibility: 6 or more miles (10+ km)
Ceiling: ceiling and visibility are OK
Clouds: unknown
Weather: no significant weather observed at this time

METAR text: UUDD 210830Z 05003MPS 360V120 CAVOK 15/M06 Q1027 R88/CLRD95 NOSIG
Conditions at: UUDD (MOSCOW/DOMODEDOV, RU) observed 0830 UTC 21 April 2019
Temperature: 15.0°C (59°F)
Dewpoint: -6.0°C (21°F) [RH = 23%]
Pressure (altimeter): 30.32 inches Hg (1027.0 mb)
Winds: from the NE (50 degrees) at 7 MPH (6 knots; 3.1 m/s)
Visibility: 6 or more miles (10+ km)
Ceiling: ceiling and visibility are OK
Clouds: unknown
Weather: no significant weather observed at this time

METAR text: UUDD 210800Z 16003MPS 130V200 CAVOK 15/M06 Q1027 R88/95D NOSIG
Conditions at: UUDD (MOSCOW/DOMODEDOV, RU) observed 0800 UTC 21 April 2019
Temperature: 15.0°C (59°F)
Dewpoint: -6.0°C (21°F) [RH = 23%]
Pressure (altimeter): 30.32 inches Hg (1027.0 mb)
Winds: from the SSE (160 degrees) at 7 MPH (6 knots; 3.1 m/s)
Visibility: 6 or more miles (10+ km)
Ceiling: ceiling and visibility are OK
Clouds: unknown
Weather: no significant weather observed at this time

METAR text: UUDD 210730Z 13003MPS 080V210 CAVOK 14/M05 Q1027 R88/CLRD95 NOSIG
Conditions at: UUDD (MOSCOW/DOMODEDOV, RU) observed 0730 UTC 21 April 2019
Temperature: 14.0°C (57°F)
Dewpoint: -5.0°C (23°F) [RH = 26%]
Pressure (altimeter): 30.32 inches Hg (1027.0 mb)
Winds: from the SE (130 degrees) at 7 MPH (6 knots; 3.1 m/s)
Visibility: 6 or more miles (10+ km)
Ceiling: ceiling and visibility are OK
Clouds: unknown
Weather: no significant weather observed at this time

METAR text: UUDD 210700Z 13003MPS CAVOK 14/M05 Q1027 R88/CLRD95 NOSIG
Conditions at: UUDD (MOSCOW/DOMODEDOV, RU) observed 0700 UTC 21 April 2019
Temperature: 14.0°C (57°F)
Dewpoint: -5.0°C (23°F) [RH = 26%]
Pressure (altimeter): 30.32 inches Hg (1027.0 mb)
Winds: from the SE (130 degrees) at 7 MPH (6 knots; 3.1 m/s)
Visibility: 6 or more miles (10+ km)
Ceiling: ceiling and visibility are OK
Clouds: unknown
Weather: no significant weather observed at this time

METAR text: UUDD 210630Z 20002MPS CAVOK 13/M04 Q1027 R88/CLRD95 NOSIG
Conditions at: UUDD (MOSCOW/DOMODEDOV, RU) observed 0630 UTC 21 April 2019
Temperature: 13.0°C (55°F)
Dewpoint: -4.0°C (25°F) [RH = 30%]
Pressure (altimeter): 30.32 inches Hg (1027.0 mb)
Winds: from the SSW (200 degrees) at 5 MPH (4 knots; 2.1 m/s)
Visibility: 6 or more miles (10+ km)
Ceiling: ceiling and visibility are OK
Clouds: unknown
Weather: no significant weather observed at this time

METAR text: UUDD 210600Z 17002MPS CAVOK 12/M04 Q1027 R88/CLRD95 NOSIG
Conditions at: UUDD (MOSCOW/DOMODEDOV, RU) observed 0600 UTC 21 April 2019
Temperature: 12.0°C (54°F)
Dewpoint: -4.0°C (25°F) [RH = 32%]
Pressure (altimeter): 30.32 inches Hg (1027.0 mb)
Winds: from the S (170 degrees) at 5 MPH (4 knots; 2.1 m/s)
Visibility: 6 or more miles (10+ km)
Ceiling: ceiling and visibility are OK
Clouds: unknown
Weather: no significant weather observed at this time

METAR text: UUDD 210530Z 14003MPS CAVOK 10/M04 Q1026 R88/95D NOSIG
Conditions at: UUDD (MOSCOW/DOMODEDOV, RU) observed 0530 UTC 21 April 2019
Temperature: 10.0°C (50°F)
Dewpoint: -4.0°C (25°F) [RH = 37%]
Pressure (altimeter): 30.30 inches Hg (1026.0 mb)
Winds: from the SE (140 degrees) at 7 MPH (6 knots; 3.1 m/s)
Visibility: 6 or more miles (10+ km)
Ceiling: ceiling and visibility are OK
Clouds: unknown
Weather: no significant weather observed at this time

METAR text: UUDD 210500Z 14002MPS CAVOK 09/M02 Q1026 R88/95D NOSIG
Conditions at: UUDD (MOSCOW/DOMODEDOV, RU) observed 0500 UTC 21 April 2019
Temperature: 9.0°C (48°F)
Dewpoint: -2.0°C (28°F) [RH = 46%]
Pressure (altimeter): 30.30 inches Hg (1026.0 mb)
Winds: from the SE (140 degrees) at 5 MPH (4 knots; 2.1 m/s)
Visibility: 6 or more miles (10+ km)
Ceiling: ceiling and visibility are OK
Clouds: unknown
Weather: no significant weather observed at this time

METAR text: UUDD 210430Z VRB01MPS CAVOK 07/M01 Q1026 R88/CLRD95 NOSIG
Conditions at: UUDD (MOSCOW/DOMODEDOV, RU) observed 0430 UTC 21 April 2019
Temperature: 7.0°C (45°F)
Dewpoint: -1.0°C (30°F) [RH = 57%]
Pressure (altimeter): 30.30 inches Hg (1026.0 mb)
Winds: variable direction winds at 2 MPH (2 knots; 1.0 m/s)
Visibility: 6 or more miles (10+ km)
Ceiling: ceiling and visibility are OK
Clouds: unknown
Weather: no significant weather observed at this time

METAR text: UUDD 210400Z 06001MPS CAVOK 05/M01 Q1026 R88/95D NOSIG
Conditions at: UUDD (MOSCOW/DOMODEDOV, RU) observed 0400 UTC 21 April 2019
Temperature: 5.0°C (41°F)
Dewpoint: -1.0°C (30°F) [RH = 65%]
Pressure (altimeter): 30.30 inches Hg (1026.0 mb)
Winds: from the ENE (60 degrees) at 2 MPH (2 knots; 1.0 m/s)
Visibility: 6 or more miles (10+ km)
Ceiling: ceiling and visibility are OK
Clouds: unknown
Weather: no significant weather observed at this time

METAR text: UUDD 210330Z 07001MPS CAVOK 04/M01 Q1026 R88/95D NOSIG
Conditions at: UUDD (MOSCOW/DOMODEDOV, RU) observed 0330 UTC 21 April 2019
Temperature: 4.0°C (39°F)
Dewpoint: -1.0°C (30°F) [RH = 70%]
Pressure (altimeter): 30.30 inches Hg (1026.0 mb)
Winds: from the ENE (70 degrees) at 2 MPH (2 knots; 1.0 m/s)
Visibility: 6 or more miles (10+ km)
Ceiling: ceiling and visibility are OK
Clouds: unknown
Weather: no significant weather observed at this time

METAR text: UUDD 210300Z 06002MPS CAVOK 03/M01 Q1025 R32L/CLRD95 NOSIG
Conditions at: UUDD (MOSCOW/DOMODEDOV, RU) observed 0300 UTC 21 April 2019
Temperature: 3.0°C (37°F)
Dewpoint: -1.0°C (30°F) [RH = 75%]
Pressure (altimeter): 30.27 inches Hg (1025.0 mb)
Winds: from the ENE (60 degrees) at 5 MPH (4 knots; 2.1 m/s)
Visibility: 6 or more miles (10+ km)
Ceiling: ceiling and visibility are OK
Clouds: unknown
Weather: no significant weather observed at this time

Forecast for: UUDD (MOSCOW/DOMODEDOV, RU)
Text: TAF UUDD 221351Z 2215/2321 32003MPS CAVOK TX19/2312Z TN03/2302Z
Forecast period: 1500 UTC 22 April 2019 to 2100 UTC 23 April 2019
Forecast type: FROM: standard forecast or significant change
Winds: from the NW (320 degrees) at 7 MPH (6 knots; 3.1 m/s)
Visibility: 6 or more miles 10+ km)
Ceiling: unknown
Clouds: missing
Weather: no significant weather forecast for this period
Text: TEMPO 2306/2315 32008MPS
Forecast period: 0600 to 1500 UTC 23 April 2019
Forecast type: TEMPORARY: The following changes expected for less than half the time period
Winds: from the NW (320 degrees) at 18 MPH (16 knots; 8.2 m/s)
Visibility: missing
Ceiling: unknown
Clouds: missing
Weather: no significant weather forecast for this period